sensor_id;sensor_type;location;lat;lon;timestamp;P1;durP1;ratioP1;P2;durP2;ratioP2
23868;SDS011;12115;47.128;15.422;2024-03-08T00:00:11;9.07;;;7.20;;
23868;SDS011;12115;47.128;15.422;2024-03-08T00:02:42;12.77;;;7.70;;
23868;SDS011;12115;47.128;15.422;2024-03-08T00:05:09;11.95;;;7.53;;
23868;SDS011;12115;47.128;15.422;2024-03-08T00:07:37;12.10;;;8.57;;
23868;SDS011;12115;47.128;15.422;2024-03-08T00:10:05;12.10;;;8.63;;
23868;SDS011;12115;47.128;15.422;2024-03-08T00:12:38;11.68;;;7.88;;
23868;SDS011;12115;47.128;15.422;2024-03-08T00:15:17;10.13;;;7.45;;
23868;SDS011;12115;47.128;15.422;2024-03-08T00:17:46;11.75;;;7.13;;
23868;SDS011;12115;47.128;15.422;2024-03-08T00:20:15;10.65;;;7.72;;
23868;SDS011;12115;47.128;15.422;2024-03-08T00:22:45;12.80;;;8.98;;
23868;SDS011;12115;47.128;15.422;2024-03-08T00:25:13;11.77;;;8.95;;
23868;SDS011;12115;47.128;15.422;2024-03-08T00:27:41;11.90;;;8.10;;
23868;SDS011;12115;47.128;15.422;2024-03-08T00:30:11;38.90;;;16.33;;
23868;SDS011;12115;47.128;15.422;2024-03-08T00:32:40;16.67;;;10.15;;
23868;SDS011;12115;47.128;15.422;2024-03-08T00:35:08;15.23;;;10.07;;
23868;SDS011;12115;47.128;15.422;2024-03-08T00:37:35;13.50;;;9.05;;
23868;SDS011;12115;47.128;15.422;2024-03-08T00:40:02;14.20;;;10.20;;
23868;SDS011;12115;47.128;15.422;2024-03-08T00:42:31;12.80;;;9.13;;
23868;SDS011;12115;47.128;15.422;2024-03-08T00:44:58;12.35;;;9.30;;
23868;SDS011;12115;47.128;15.422;2024-03-08T00:47:25;12.93;;;8.15;;
23868;SDS011;12115;47.128;15.422;2024-03-08T00:49:53;12.90;;;8.93;;
23868;SDS011;12115;47.128;15.422;2024-03-08T00:52:23;16.52;;;10.23;;
23868;SDS011;12115;47.128;15.422;2024-03-08T00:54:50;13.68;;;8.85;;
23868;SDS011;12115;47.128;15.422;2024-03-08T00:57:17;13.52;;;9.00;;
23868;SDS011;12115;47.128;15.422;2024-03-08T00:59:45;14.13;;;9.50;;
23868;SDS011;12115;47.128;15.422;2024-03-08T01:02:13;13.18;;;9.63;;
23868;SDS011;12115;47.128;15.422;2024-03-08T01:04:41;13.65;;;8.73;;
23868;SDS011;12115;47.128;15.422;2024-03-08T01:07:07;14.05;;;9.38;;
23868;SDS011;12115;47.128;15.422;2024-03-08T01:09:35;12.52;;;8.93;;
23868;SDS011;12115;47.128;15.422;2024-03-08T01:12:02;14.30;;;9.57;;
23868;SDS011;12115;47.128;15.422;2024-03-08T01:14:30;12.00;;;9.02;;
23868;SDS011;12115;47.128;15.422;2024-03-08T01:16:57;13.35;;;8.38;;
23868;SDS011;12115;47.128;15.422;2024-03-08T01:19:25;13.13;;;7.93;;
23868;SDS011;12115;47.128;15.422;2024-03-08T01:21:52;12.02;;;7.93;;
23868;SDS011;12115;47.128;15.422;2024-03-08T01:24:22;13.52;;;8.77;;
23868;SDS011;12115;47.128;15.422;2024-03-08T01:26:49;13.93;;;9.07;;
23868;SDS011;12115;47.128;15.422;2024-03-08T01:29:16;12.45;;;8.82;;
23868;SDS011;12115;47.128;15.422;2024-03-08T01:31:43;10.43;;;8.00;;
23868;SDS011;12115;47.128;15.422;2024-03-08T01:34:10;11.43;;;8.27;;
23868;SDS011;12115;47.128;15.422;2024-03-08T01:36:37;11.10;;;8.50;;
23868;SDS011;12115;47.128;15.422;2024-03-08T01:39:04;10.32;;;7.97;;
23868;SDS011;12115;47.128;15.422;2024-03-08T01:41:37;10.55;;;7.82;;
23868;SDS011;12115;47.128;15.422;2024-03-08T01:44:04;12.18;;;8.98;;
23868;SDS011;12115;47.128;15.422;2024-03-08T01:46:33;12.88;;;8.20;;
23868;SDS011;12115;47.128;15.422;2024-03-08T01:49:01;15.93;;;9.68;;
23868;SDS011;12115;47.128;15.422;2024-03-08T01:51:29;11.55;;;8.50;;
23868;SDS011;12115;47.128;15.422;2024-03-08T01:53:57;11.65;;;8.80;;
23868;SDS011;12115;47.128;15.422;2024-03-08T01:58:58;12.45;;;8.57;;
23868;SDS011;12115;47.128;15.422;2024-03-08T02:01:26;16.48;;;8.88;;
23868;SDS011;12115;47.128;15.422;2024-03-08T02:03:55;14.50;;;9.10;;
23868;SDS011;12115;47.128;15.422;2024-03-08T02:06:22;14.02;;;9.48;;
23868;SDS011;12115;47.128;15.422;2024-03-08T02:08:49;13.73;;;9.35;;
23868;SDS011;12115;47.128;15.422;2024-03-08T02:11:16;13.77;;;8.85;;
23868;SDS011;12115;47.128;15.422;2024-03-08T02:13:44;11.38;;;8.60;;
23868;SDS011;12115;47.128;15.422;2024-03-08T02:16:11;15.13;;;9.80;;
23868;SDS011;12115;47.128;15.422;2024-03-08T02:18:38;13.38;;;8.90;;
23868;SDS011;12115;47.128;15.422;2024-03-08T02:21:06;13.30;;;8.63;;
23868;SDS011;12115;47.128;15.422;2024-03-08T02:23:35;12.00;;;8.85;;
23868;SDS011;12115;47.128;15.422;2024-03-08T02:26:04;12.10;;;9.05;;
23868;SDS011;12115;47.128;15.422;2024-03-08T02:28:31;13.13;;;9.15;;
23868;SDS011;12115;47.128;15.422;2024-03-08T02:30:59;12.88;;;9.02;;
23868;SDS011;12115;47.128;15.422;2024-03-08T02:33:28;11.48;;;8.48;;
23868;SDS011;12115;47.128;15.422;2024-03-08T02:35:57;11.63;;;8.40;;
23868;SDS011;12115;47.128;15.422;2024-03-08T02:38:24;13.07;;;9.10;;
23868;SDS011;12115;47.128;15.422;2024-03-08T02:40:52;15.70;;;10.40;;
23868;SDS011;12115;47.128;15.422;2024-03-08T02:43:21;13.77;;;9.30;;
23868;SDS011;12115;47.128;15.422;2024-03-08T02:45:49;13.93;;;9.95;;
23868;SDS011;12115;47.128;15.422;2024-03-08T02:48:17;13.77;;;9.57;;
23868;SDS011;12115;47.128;15.422;2024-03-08T02:50:44;11.30;;;9.00;;
23868;SDS011;12115;47.128;15.422;2024-03-08T02:53:12;15.05;;;9.98;;
23868;SDS011;12115;47.128;15.422;2024-03-08T02:55:40;14.48;;;9.13;;
23868;SDS011;12115;47.128;15.422;2024-03-08T02:58:08;15.30;;;9.30;;
23868;SDS011;12115;47.128;15.422;2024-03-08T03:00:39;13.68;;;9.65;;
23868;SDS011;12115;47.128;15.422;2024-03-08T03:03:07;14.77;;;10.43;;
23868;SDS011;12115;47.128;15.422;2024-03-08T03:05:34;13.35;;;9.52;;
23868;SDS011;12115;47.128;15.422;2024-03-08T03:08:02;13.57;;;10.27;;
23868;SDS011;12115;47.128;15.422;2024-03-08T03:10:36;15.63;;;10.52;;
23868;SDS011;12115;47.128;15.422;2024-03-08T03:13:06;23.70;;;14.73;;
23868;SDS011;12115;47.128;15.422;2024-03-08T03:15:35;19.67;;;12.15;;
23868;SDS011;12115;47.128;15.422;2024-03-08T03:18:03;15.93;;;9.80;;
23868;SDS011;12115;47.128;15.422;2024-03-08T03:20:35;16.05;;;11.35;;
23868;SDS011;12115;47.128;15.422;2024-03-08T03:23:11;17.75;;;10.98;;
23868;SDS011;12115;47.128;15.422;2024-03-08T03:25:42;15.80;;;10.65;;
23868;SDS011;12115;47.128;15.422;2024-03-08T03:28:09;16.27;;;10.73;;
23868;SDS011;12115;47.128;15.422;2024-03-08T03:30:41;16.42;;;10.63;;
23868;SDS011;12115;47.128;15.422;2024-03-08T03:33:08;14.60;;;10.07;;
23868;SDS011;12115;47.128;15.422;2024-03-08T03:35:36;17.70;;;12.15;;
23868;SDS011;12115;47.128;15.422;2024-03-08T03:38:04;18.05;;;11.13;;
23868;SDS011;12115;47.128;15.422;2024-03-08T03:40:37;16.58;;;11.60;;
23868;SDS011;12115;47.128;15.422;2024-03-08T03:43:05;15.40;;;10.65;;
23868;SDS011;12115;47.128;15.422;2024-03-08T03:45:32;16.95;;;11.00;;
23868;SDS011;12115;47.128;15.422;2024-03-08T03:48:04;18.92;;;12.55;;
23868;SDS011;12115;47.128;15.422;2024-03-08T03:50:39;15.10;;;10.70;;
23868;SDS011;12115;47.128;15.422;2024-03-08T03:53:07;16.92;;;10.75;;
23868;SDS011;12115;47.128;15.422;2024-03-08T03:55:36;19.98;;;12.82;;
23868;SDS011;12115;47.128;15.422;2024-03-08T03:58:06;16.70;;;11.52;;
23868;SDS011;12115;47.128;15.422;2024-03-08T04:00:34;18.20;;;12.25;;
23868;SDS011;12115;47.128;15.422;2024-03-08T04:03:01;17.33;;;13.00;;
23868;SDS011;12115;47.128;15.422;2024-03-08T04:05:28;21.38;;;14.60;;
23868;SDS011;12115;47.128;15.422;2024-03-08T04:07:55;20.40;;;13.30;;
23868;SDS011;12115;47.128;15.422;2024-03-08T04:10:23;20.08;;;13.60;;
23868;SDS011;12115;47.128;15.422;2024-03-08T04:12:51;19.85;;;13.00;;
23868;SDS011;12115;47.128;15.422;2024-03-08T04:15:19;20.40;;;13.52;;
23868;SDS011;12115;47.128;15.422;2024-03-08T04:17:47;19.60;;;13.60;;
23868;SDS011;12115;47.128;15.422;2024-03-08T04:20:14;19.95;;;13.95;;
23868;SDS011;12115;47.128;15.422;2024-03-08T04:22:42;20.48;;;13.27;;
23868;SDS011;12115;47.128;15.422;2024-03-08T04:25:11;25.27;;;16.65;;
23868;SDS011;12115;47.128;15.422;2024-03-08T04:27:38;25.95;;;16.33;;
23868;SDS011;12115;47.128;15.422;2024-03-08T04:30:05;20.52;;;14.18;;
23868;SDS011;12115;47.128;15.422;2024-03-08T04:32:36;20.13;;;14.27;;
23868;SDS011;12115;47.128;15.422;2024-03-08T04:35:04;19.75;;;13.48;;
23868;SDS011;12115;47.128;15.422;2024-03-08T04:37:32;18.85;;;13.40;;
23868;SDS011;12115;47.128;15.422;2024-03-08T04:39:59;18.60;;;13.45;;
23868;SDS011;12115;47.128;15.422;2024-03-08T04:42:29;19.55;;;13.25;;
23868;SDS011;12115;47.128;15.422;2024-03-08T04:44:59;18.63;;;12.98;;
23868;SDS011;12115;47.128;15.422;2024-03-08T04:47:26;17.02;;;13.05;;
23868;SDS011;12115;47.128;15.422;2024-03-08T04:49:54;20.88;;;13.10;;
23868;SDS011;12115;47.128;15.422;2024-03-08T04:52:22;19.40;;;13.23;;
23868;SDS011;12115;47.128;15.422;2024-03-08T04:54:50;21.35;;;14.05;;
23868;SDS011;12115;47.128;15.422;2024-03-08T04:57:17;18.65;;;12.88;;
23868;SDS011;12115;47.128;15.422;2024-03-08T04:59:45;20.58;;;13.38;;
23868;SDS011;12115;47.128;15.422;2024-03-08T05:02:13;17.23;;;12.63;;
23868;SDS011;12115;47.128;15.422;2024-03-08T05:04:40;17.65;;;12.30;;
23868;SDS011;12115;47.128;15.422;2024-03-08T05:07:09;16.88;;;11.95;;
23868;SDS011;12115;47.128;15.422;2024-03-08T05:09:36;18.30;;;12.98;;
23868;SDS011;12115;47.128;15.422;2024-03-08T05:12:04;18.02;;;11.63;;
23868;SDS011;12115;47.128;15.422;2024-03-08T05:14:32;19.17;;;12.85;;
23868;SDS011;12115;47.128;15.422;2024-03-08T05:17:00;18.23;;;12.45;;
23868;SDS011;12115;47.128;15.422;2024-03-08T05:19:28;20.15;;;12.82;;
23868;SDS011;12115;47.128;15.422;2024-03-08T05:22:00;19.30;;;13.32;;
23868;SDS011;12115;47.128;15.422;2024-03-08T05:24:27;17.58;;;12.65;;
23868;SDS011;12115;47.128;15.422;2024-03-08T05:26:56;25.85;;;14.93;;
23868;SDS011;12115;47.128;15.422;2024-03-08T05:29:23;26.52;;;15.77;;
23868;SDS011;12115;47.128;15.422;2024-03-08T05:31:51;21.83;;;15.15;;
23868;SDS011;12115;47.128;15.422;2024-03-08T05:34:19;23.10;;;14.80;;
23868;SDS011;12115;47.128;15.422;2024-03-08T05:36:48;21.42;;;14.07;;
23868;SDS011;12115;47.128;15.422;2024-03-08T05:39:18;25.27;;;14.85;;
23868;SDS011;12115;47.128;15.422;2024-03-08T05:41:47;20.90;;;15.00;;
23868;SDS011;12115;47.128;15.422;2024-03-08T05:44:14;25.35;;;15.57;;
23868;SDS011;12115;47.128;15.422;2024-03-08T05:46:44;21.13;;;15.48;;
23868;SDS011;12115;47.128;15.422;2024-03-08T05:49:13;23.65;;;14.77;;
23868;SDS011;12115;47.128;15.422;2024-03-08T05:51:40;25.98;;;17.27;;
23868;SDS011;12115;47.128;15.422;2024-03-08T05:54:09;23.33;;;16.08;;
23868;SDS011;12115;47.128;15.422;2024-03-08T05:56:40;22.33;;;15.38;;
23868;SDS011;12115;47.128;15.422;2024-03-08T05:59:11;24.33;;;14.57;;
23868;SDS011;12115;47.128;15.422;2024-03-08T06:01:40;24.60;;;15.88;;
23868;SDS011;12115;47.128;15.422;2024-03-08T06:04:09;19.80;;;13.85;;
23868;SDS011;12115;47.128;15.422;2024-03-08T06:06:40;19.38;;;13.18;;
23868;SDS011;12115;47.128;15.422;2024-03-08T06:09:08;22.27;;;14.57;;
23868;SDS011;12115;47.128;15.422;2024-03-08T06:11:41;23.23;;;15.07;;
23868;SDS011;12115;47.128;15.422;2024-03-08T06:14:09;23.55;;;15.93;;
23868;SDS011;12115;47.128;15.422;2024-03-08T06:16:36;24.02;;;16.42;;
23868;SDS011;12115;47.128;15.422;2024-03-08T06:19:05;21.98;;;14.20;;
23868;SDS011;12115;47.128;15.422;2024-03-08T06:21:32;23.30;;;14.77;;
23868;SDS011;12115;47.128;15.422;2024-03-08T06:23:59;22.65;;;15.27;;
23868;SDS011;12115;47.128;15.422;2024-03-08T06:26:27;24.05;;;15.25;;
23868;SDS011;12115;47.128;15.422;2024-03-08T06:31:25;26.58;;;15.68;;
23868;SDS011;12115;47.128;15.422;2024-03-08T06:33:52;24.33;;;15.48;;
23868;SDS011;12115;47.128;15.422;2024-03-08T06:36:23;31.02;;;17.88;;
23868;SDS011;12115;47.128;15.422;2024-03-08T06:38:51;25.40;;;17.52;;
23868;SDS011;12115;47.128;15.422;2024-03-08T06:41:18;24.40;;;17.00;;
23868;SDS011;12115;47.128;15.422;2024-03-08T06:43:46;29.52;;;18.63;;
23868;SDS011;12115;47.128;15.422;2024-03-08T06:46:15;22.60;;;15.52;;
23868;SDS011;12115;47.128;15.422;2024-03-08T06:48:42;26.45;;;16.75;;
23868;SDS011;12115;47.128;15.422;2024-03-08T06:51:10;24.35;;;15.35;;
23868;SDS011;12115;47.128;15.422;2024-03-08T06:53:38;23.17;;;15.57;;
23868;SDS011;12115;47.128;15.422;2024-03-08T06:56:05;23.13;;;15.70;;
23868;SDS011;12115;47.128;15.422;2024-03-08T06:58:34;25.10;;;15.82;;
23868;SDS011;12115;47.128;15.422;2024-03-08T07:01:01;23.25;;;15.48;;
23868;SDS011;12115;47.128;15.422;2024-03-08T07:03:31;23.75;;;16.77;;
23868;SDS011;12115;47.128;15.422;2024-03-08T07:05:59;27.05;;;16.75;;
23868;SDS011;12115;47.128;15.422;2024-03-08T07:08:29;22.25;;;15.13;;
23868;SDS011;12115;47.128;15.422;2024-03-08T07:10:56;20.58;;;15.35;;
23868;SDS011;12115;47.128;15.422;2024-03-08T07:13:26;23.63;;;15.10;;
23868;SDS011;12115;47.128;15.422;2024-03-08T07:15:55;21.80;;;15.25;;
23868;SDS011;12115;47.128;15.422;2024-03-08T07:18:22;24.42;;;14.70;;
23868;SDS011;12115;47.128;15.422;2024-03-08T07:20:50;20.83;;;14.25;;
23868;SDS011;12115;47.128;15.422;2024-03-08T07:23:17;19.73;;;14.13;;
23868;SDS011;12115;47.128;15.422;2024-03-08T07:26:03;20.30;;;13.38;;
23868;SDS011;12115;47.128;15.422;2024-03-08T07:28:31;18.67;;;12.52;;
23868;SDS011;12115;47.128;15.422;2024-03-08T07:30:58;14.15;;;10.35;;
23868;SDS011;12115;47.128;15.422;2024-03-08T07:33:48;15.15;;;10.02;;
23868;SDS011;12115;47.128;15.422;2024-03-08T07:36:17;11.85;;;8.55;;
23868;SDS011;12115;47.128;15.422;2024-03-08T07:38:44;12.75;;;8.38;;
23868;SDS011;12115;47.128;15.422;2024-03-08T07:41:15;12.20;;;8.85;;
23868;SDS011;12115;47.128;15.422;2024-03-08T07:43:43;13.50;;;9.27;;
23868;SDS011;12115;47.128;15.422;2024-03-08T07:46:10;14.43;;;9.82;;
23868;SDS011;12115;47.128;15.422;2024-03-08T07:48:37;14.00;;;9.57;;
23868;SDS011;12115;47.128;15.422;2024-03-08T07:51:06;15.48;;;10.35;;
23868;SDS011;12115;47.128;15.422;2024-03-08T07:53:36;13.27;;;9.93;;
23868;SDS011;12115;47.128;15.422;2024-03-08T07:56:04;12.73;;;9.95;;
23868;SDS011;12115;47.128;15.422;2024-03-08T07:58:32;14.15;;;9.85;;
23868;SDS011;12115;47.128;15.422;2024-03-08T08:01:01;14.75;;;10.30;;
23868;SDS011;12115;47.128;15.422;2024-03-08T08:03:28;15.52;;;12.00;;
23868;SDS011;12115;47.128;15.422;2024-03-08T08:05:57;12.40;;;9.43;;
23868;SDS011;12115;47.128;15.422;2024-03-08T08:08:24;12.70;;;9.45;;
23868;SDS011;12115;47.128;15.422;2024-03-08T08:10:53;20.02;;;10.43;;
23868;SDS011;12115;47.128;15.422;2024-03-08T08:13:20;14.45;;;10.15;;
23868;SDS011;12115;47.128;15.422;2024-03-08T08:15:48;16.23;;;12.23;;
23868;SDS011;12115;47.128;15.422;2024-03-08T08:18:15;14.25;;;10.80;;
23868;SDS011;12115;47.128;15.422;2024-03-08T08:20:44;15.98;;;11.07;;
23868;SDS011;12115;47.128;15.422;2024-03-08T08:23:11;17.13;;;11.15;;
23868;SDS011;12115;47.128;15.422;2024-03-08T08:25:38;20.48;;;13.48;;
23868;SDS011;12115;47.128;15.422;2024-03-08T08:28:05;21.15;;;13.38;;
23868;SDS011;12115;47.128;15.422;2024-03-08T08:30:34;21.45;;;14.60;;
23868;SDS011;12115;47.128;15.422;2024-03-08T08:35:48;24.02;;;15.60;;
23868;SDS011;12115;47.128;15.422;2024-03-08T08:38:18;25.20;;;15.55;;
23868;SDS011;12115;47.128;15.422;2024-03-08T08:40:46;29.70;;;18.00;;
23868;SDS011;12115;47.128;15.422;2024-03-08T08:43:13;21.63;;;14.57;;
23868;SDS011;12115;47.128;15.422;2024-03-08T08:45:40;21.77;;;15.70;;
23868;SDS011;12115;47.128;15.422;2024-03-08T08:48:09;24.73;;;16.25;;
23868;SDS011;12115;47.128;15.422;2024-03-08T08:50:37;20.40;;;15.18;;
23868;SDS011;12115;47.128;15.422;2024-03-08T08:53:04;22.67;;;14.80;;
23868;SDS011;12115;47.128;15.422;2024-03-08T08:55:33;27.02;;;15.70;;
23868;SDS011;12115;47.128;15.422;2024-03-08T08:58:02;20.73;;;14.85;;
23868;SDS011;12115;47.128;15.422;2024-03-08T09:00:29;20.95;;;14.32;;
23868;SDS011;12115;47.128;15.422;2024-03-08T09:02:58;26.52;;;16.80;;
23868;SDS011;12115;47.128;15.422;2024-03-08T09:05:25;20.50;;;14.23;;
23868;SDS011;12115;47.128;15.422;2024-03-08T09:07:52;21.95;;;15.07;;
23868;SDS011;12115;47.128;15.422;2024-03-08T09:10:20;19.20;;;13.27;;
23868;SDS011;12115;47.128;15.422;2024-03-08T09:12:48;17.35;;;11.98;;
23868;SDS011;12115;47.128;15.422;2024-03-08T09:15:15;18.42;;;12.75;;
23868;SDS011;12115;47.128;15.422;2024-03-08T09:17:44;17.52;;;13.52;;
23868;SDS011;12115;47.128;15.422;2024-03-08T09:20:11;18.05;;;12.18;;
23868;SDS011;12115;47.128;15.422;2024-03-08T09:22:45;18.30;;;12.02;;
23868;SDS011;12115;47.128;15.422;2024-03-08T09:25:15;14.98;;;11.40;;
23868;SDS011;12115;47.128;15.422;2024-03-08T09:27:43;13.13;;;9.73;;
23868;SDS011;12115;47.128;15.422;2024-03-08T09:30:10;13.20;;;10.10;;
23868;SDS011;12115;47.128;15.422;2024-03-08T09:32:39;11.88;;;9.35;;
23868;SDS011;12115;47.128;15.422;2024-03-08T09:35:07;12.70;;;9.65;;
23868;SDS011;12115;47.128;15.422;2024-03-08T09:37:35;13.10;;;9.15;;
23868;SDS011;12115;47.128;15.422;2024-03-08T09:40:02;14.07;;;10.15;;
23868;SDS011;12115;47.128;15.422;2024-03-08T09:42:36;13.32;;;9.90;;
23868;SDS011;12115;47.128;15.422;2024-03-08T09:45:10;10.77;;;8.55;;
23868;SDS011;12115;47.128;15.422;2024-03-08T09:47:41;12.68;;;9.35;;
23868;SDS011;12115;47.128;15.422;2024-03-08T09:50:10;14.38;;;9.40;;
23868;SDS011;12115;47.128;15.422;2024-03-08T09:52:39;9.52;;;7.80;;
23868;SDS011;12115;47.128;15.422;2024-03-08T09:55:08;9.38;;;7.18;;
23868;SDS011;12115;47.128;15.422;2024-03-08T09:57:40;8.57;;;7.22;;
23868;SDS011;12115;47.128;15.422;2024-03-08T10:00:20;11.35;;;9.30;;
23868;SDS011;12115;47.128;15.422;2024-03-08T10:02:51;12.43;;;9.17;;
23868;SDS011;12115;47.128;15.422;2024-03-08T10:05:20;13.48;;;9.52;;
23868;SDS011;12115;47.128;15.422;2024-03-08T10:07:48;11.50;;;8.88;;
23868;SDS011;12115;47.128;15.422;2024-03-08T10:10:15;12.15;;;7.90;;
23868;SDS011;12115;47.128;15.422;2024-03-08T10:12:42;10.30;;;8.05;;
23868;SDS011;12115;47.128;15.422;2024-03-08T10:15:10;9.57;;;7.38;;
23868;SDS011;12115;47.128;15.422;2024-03-08T10:17:38;10.55;;;7.35;;
23868;SDS011;12115;47.128;15.422;2024-03-08T10:20:24;12.60;;;8.15;;
23868;SDS011;12115;47.128;15.422;2024-03-08T10:22:52;10.27;;;7.93;;
23868;SDS011;12115;47.128;15.422;2024-03-08T10:25:35;12.40;;;7.63;;
23868;SDS011;12115;47.128;15.422;2024-03-08T10:28:03;12.35;;;7.68;;
23868;SDS011;12115;47.128;15.422;2024-03-08T10:30:33;13.57;;;9.03;;
23868;SDS011;12115;47.128;15.422;2024-03-08T10:33:02;11.23;;;8.82;;
23868;SDS011;12115;47.128;15.422;2024-03-08T10:35:32;9.95;;;7.82;;
23868;SDS011;12115;47.128;15.422;2024-03-08T10:37:59;10.63;;;7.55;;
23868;SDS011;12115;47.128;15.422;2024-03-08T10:40:31;8.75;;;6.85;;
23868;SDS011;12115;47.128;15.422;2024-03-08T10:42:59;9.55;;;6.95;;
23868;SDS011;12115;47.128;15.422;2024-03-08T10:45:30;10.57;;;6.68;;
23868;SDS011;12115;47.128;15.422;2024-03-08T10:50:36;6.82;;;5.40;;
23868;SDS011;12115;47.128;15.422;2024-03-08T10:53:05;7.10;;;5.93;;
23868;SDS011;12115;47.128;15.422;2024-03-08T10:55:33;8.95;;;5.55;;
23868;SDS011;12115;47.128;15.422;2024-03-08T10:58:07;9.82;;;5.65;;
23868;SDS011;12115;47.128;15.422;2024-03-08T11:00:36;6.70;;;5.30;;
23868;SDS011;12115;47.128;15.422;2024-03-08T11:03:03;9.88;;;5.72;;
23868;SDS011;12115;47.128;15.422;2024-03-08T11:05:37;7.80;;;6.22;;
23868;SDS011;12115;47.128;15.422;2024-03-08T11:08:17;9.00;;;6.55;;
23868;SDS011;12115;47.128;15.422;2024-03-08T11:10:51;8.48;;;6.65;;
23868;SDS011;12115;47.128;15.422;2024-03-08T11:13:35;9.70;;;6.88;;
23868;SDS011;12115;47.128;15.422;2024-03-08T11:16:08;9.45;;;6.75;;
23868;SDS011;12115;47.128;15.422;2024-03-08T11:18:40;8.20;;;6.43;;
23868;SDS011;12115;47.128;15.422;2024-03-08T11:21:08;9.10;;;7.43;;
23868;SDS011;12115;47.128;15.422;2024-03-08T11:23:39;8.77;;;6.78;;
23868;SDS011;12115;47.128;15.422;2024-03-08T11:26:23;8.70;;;5.80;;
23868;SDS011;12115;47.128;15.422;2024-03-08T11:28:51;10.20;;;7.43;;
23868;SDS011;12115;47.128;15.422;2024-03-08T11:36:21;10.43;;;7.13;;
23868;SDS011;12115;47.128;15.422;2024-03-08T11:38:52;8.18;;;6.20;;
23868;SDS011;12115;47.128;15.422;2024-03-08T11:41:21;7.85;;;6.03;;
23868;SDS011;12115;47.128;15.422;2024-03-08T11:43:50;8.73;;;6.18;;
23868;SDS011;12115;47.128;15.422;2024-03-08T11:46:32;10.23;;;7.07;;
23868;SDS011;12115;47.128;15.422;2024-03-08T11:49:00;10.50;;;6.97;;
23868;SDS011;12115;47.128;15.422;2024-03-08T11:51:27;9.40;;;6.82;;
23868;SDS011;12115;47.128;15.422;2024-03-08T11:53:54;8.55;;;6.55;;
23868;SDS011;12115;47.128;15.422;2024-03-08T11:56:22;9.25;;;6.30;;
23868;SDS011;12115;47.128;15.422;2024-03-08T11:58:54;8.98;;;6.70;;
23868;SDS011;12115;47.128;15.422;2024-03-08T12:01:25;10.43;;;7.20;;
23868;SDS011;12115;47.128;15.422;2024-03-08T12:03:55;10.32;;;6.78;;
23868;SDS011;12115;47.128;15.422;2024-03-08T12:06:26;8.88;;;6.30;;
23868;SDS011;12115;47.128;15.422;2024-03-08T12:09:03;6.85;;;5.60;;
23868;SDS011;12115;47.128;15.422;2024-03-08T12:11:30;8.05;;;6.18;;
23868;SDS011;12115;47.128;15.422;2024-03-08T12:14:00;7.65;;;5.95;;
23868;SDS011;12115;47.128;15.422;2024-03-08T12:16:28;9.27;;;6.90;;
23868;SDS011;12115;47.128;15.422;2024-03-08T12:18:55;6.63;;;5.35;;
23868;SDS011;12115;47.128;15.422;2024-03-08T12:21:22;7.13;;;5.63;;
23868;SDS011;12115;47.128;15.422;2024-03-08T12:24:05;7.72;;;5.63;;
23868;SDS011;12115;47.128;15.422;2024-03-08T12:26:38;7.85;;;5.28;;
23868;SDS011;12115;47.128;15.422;2024-03-08T12:29:18;8.40;;;6.22;;
23868;SDS011;12115;47.128;15.422;2024-03-08T12:31:52;7.63;;;5.85;;
23868;SDS011;12115;47.128;15.422;2024-03-08T12:34:25;7.25;;;5.50;;
23868;SDS011;12115;47.128;15.422;2024-03-08T12:36:54;6.53;;;4.90;;
23868;SDS011;12115;47.128;15.422;2024-03-08T12:39:22;8.20;;;6.05;;
23868;SDS011;12115;47.128;15.422;2024-03-08T12:41:54;7.20;;;5.88;;
23868;SDS011;12115;47.128;15.422;2024-03-08T12:44:21;8.65;;;6.55;;
23868;SDS011;12115;47.128;15.422;2024-03-08T12:46:48;7.63;;;5.93;;
23868;SDS011;12115;47.128;15.422;2024-03-08T12:49:19;8.23;;;5.77;;
23868;SDS011;12115;47.128;15.422;2024-03-08T12:51:49;7.20;;;5.85;;
23868;SDS011;12115;47.128;15.422;2024-03-08T12:54:16;8.90;;;6.38;;
23868;SDS011;12115;47.128;15.422;2024-03-08T12:56:43;8.40;;;6.13;;
23868;SDS011;12115;47.128;15.422;2024-03-08T12:59:10;7.97;;;6.32;;
23868;SDS011;12115;47.128;15.422;2024-03-08T13:01:39;7.90;;;6.13;;
23868;SDS011;12115;47.128;15.422;2024-03-08T13:04:06;8.45;;;5.97;;
23868;SDS011;12115;47.128;15.422;2024-03-08T13:06:38;7.80;;;5.30;;
23868;SDS011;12115;47.128;15.422;2024-03-08T13:09:05;8.38;;;5.78;;
23868;SDS011;12115;47.128;15.422;2024-03-08T13:11:32;7.78;;;5.00;;
23868;SDS011;12115;47.128;15.422;2024-03-08T13:14:03;8.57;;;6.13;;
23868;SDS011;12115;47.128;15.422;2024-03-08T13:16:34;7.63;;;5.72;;
23868;SDS011;12115;47.128;15.422;2024-03-08T13:19:01;7.68;;;6.25;;
23868;SDS011;12115;47.128;15.422;2024-03-08T13:21:29;7.03;;;5.20;;
23868;SDS011;12115;47.128;15.422;2024-03-08T13:23:56;8.55;;;6.15;;
23868;SDS011;12115;47.128;15.422;2024-03-08T13:26:25;7.68;;;6.47;;
23868;SDS011;12115;47.128;15.422;2024-03-08T13:28:59;10.00;;;6.68;;
23868;SDS011;12115;47.128;15.422;2024-03-08T13:31:27;8.38;;;6.43;;
23868;SDS011;12115;47.128;15.422;2024-03-08T13:33:54;8.45;;;6.32;;
23868;SDS011;12115;47.128;15.422;2024-03-08T13:36:25;8.35;;;6.28;;
23868;SDS011;12115;47.128;15.422;2024-03-08T13:38:56;8.32;;;6.85;;
23868;SDS011;12115;47.128;15.422;2024-03-08T13:41:26;8.15;;;6.68;;
23868;SDS011;12115;47.128;15.422;2024-03-08T13:43:56;10.93;;;6.93;;
23868;SDS011;12115;47.128;15.422;2024-03-08T13:46:24;10.98;;;6.40;;
23868;SDS011;12115;47.128;15.422;2024-03-08T13:48:51;8.40;;;6.10;;
23868;SDS011;12115;47.128;15.422;2024-03-08T13:51:27;8.25;;;6.20;;
23868;SDS011;12115;47.128;15.422;2024-03-08T13:53:54;8.18;;;6.22;;
23868;SDS011;12115;47.128;15.422;2024-03-08T13:56:21;7.90;;;6.18;;
23868;SDS011;12115;47.128;15.422;2024-03-08T13:58:48;7.95;;;6.78;;
23868;SDS011;12115;47.128;15.422;2024-03-08T14:01:18;7.65;;;6.50;;
23868;SDS011;12115;47.128;15.422;2024-03-08T14:03:47;8.63;;;6.43;;
23868;SDS011;12115;47.128;15.422;2024-03-08T14:06:15;8.82;;;6.50;;
23868;SDS011;12115;47.128;15.422;2024-03-08T14:08:49;8.82;;;6.53;;
23868;SDS011;12115;47.128;15.422;2024-03-08T14:11:16;9.15;;;6.63;;
23868;SDS011;12115;47.128;15.422;2024-03-08T14:13:45;12.55;;;6.50;;
23868;SDS011;12115;47.128;15.422;2024-03-08T14:16:13;8.45;;;6.35;;
23868;SDS011;12115;47.128;15.422;2024-03-08T14:18:42;10.23;;;7.38;;
23868;SDS011;12115;47.128;15.422;2024-03-08T14:21:10;7.53;;;6.45;;
23868;SDS011;12115;47.128;15.422;2024-03-08T14:23:37;9.65;;;7.90;;
23868;SDS011;12115;47.128;15.422;2024-03-08T14:26:08;9.52;;;7.47;;
23868;SDS011;12115;47.128;15.422;2024-03-08T14:28:36;9.60;;;7.82;;
23868;SDS011;12115;47.128;15.422;2024-03-08T14:31:05;10.30;;;7.53;;
23868;SDS011;12115;47.128;15.422;2024-03-08T14:33:37;10.00;;;7.80;;
23868;SDS011;12115;47.128;15.422;2024-03-08T14:36:05;9.82;;;7.18;;
23868;SDS011;12115;47.128;15.422;2024-03-08T14:38:33;11.13;;;7.75;;
23868;SDS011;12115;47.128;15.422;2024-03-08T14:41:01;11.10;;;7.60;;
23868;SDS011;12115;47.128;15.422;2024-03-08T14:43:31;11.68;;;8.30;;